Terminal Aerodrome Forecast
Issued by NWS

Home | Current Version | Previous Version | Text Only | Print | Product List | Glossary On
Versions: 1 2 3 4 5 6 7 8 9 10 11 12 13 14
000
FTUS44 KHGX 151731
TAFSGR
TAF
KSGR 151731Z 1518/1618 02009KT P6SM BKN120 OVC250
     FM160000 VRB03KT P6SM SCT080 OVC150
     FM161500 12008KT P6SM BKN060 OVC100=

USA.gov is the U.S. government's official web portal to all federal, state and local government web resources and services.